Terminal Aerodrome Forecast
Issued by NWS

Home | Current Version | Previous Version | Text Only | Print | Product List | Glossary On
Versions: 1 2 3 4 5 6 7 8 9 10 11 12 13 14 15 16 17 18 19
000
FTUS42 KJAX 291853 AAA
TAFCRG
TAF AMD
KCRG 291853Z 2919/3018 VRB03KT P6SM SCT045 SCT250
     FM291930 11011G16KT P6SM SCT050 SCT250
     FM300300 24006KT P6SM SCT250=

USA.gov is the U.S. government's official web portal to all federal, state and local government web resources and services.